메인 페이지
METAR-TAF:

METAR-TAF

공항 :

워싱턴 덜레스 국제공항

워싱톤, 버지니아, 미국

위도: 38-56-05N, 경도: 077-26-51W, 고도: 95m

현재 날씨관측

예보는 1 시간 4분 전, 18:52시(UTC)에 발표되었습니다.
북북서13kt, 순간 최대 풍속 21kt
온도 4°C
습도 48%
기압 1017 hPa
시정: 16.1km
고도 2500ft 상공 구름 보통
고도 5500ft 상공 구름 많음
고도 9000ft 상공 구름 많음

METAR: KIAD 121852Z 34013G21KT 10SM SCT025 BKN055 BKN090 04/M06 A3002 RMK AO2 SLP164 T00391056

시각: 14:56 (19:56 UTC)

예보

예보는 2 시간 23분 전, 17:33시(UTC)에 발표되었습니다.
예보 대상 시간: 12일 18시부터 13일 24시까지 (UTC)
북북서17kt, 순간 최대 풍속 25kt
시정: 10km
고도 5000ft 상공 구름 많음
13일 0300시부터 (UTC)
북북서10kt, 순간 최대 풍속 17kt
시정: 10km
맑음
13일 0600시부터 (UTC)
북서7kt
시정: 10km
맑음
13일 1800시부터 (UTC)
북서5kt
시정: 10km
고도 15000ft 상공 구름 많음

TAF: KIAD 121733Z 1218/1324 34017G25KT P6SM BKN050 FM130300 33010G17KT P6SM SKC FM130600 32007KT P6SM SKC FM131800 32005KT P6SM BKN150

4,000개 이상의 공항 관측 자료 및 예보 (METAR 및 TAF 보고).

지도상에서 검색 가능한 기상관측소가 노란 점과 빨간 점으로 표시되어 있습니다.

기상관측소 명을 보려면 표시 위로 마우스를 이동하세요.

날씨 관측과 예보를 보려면 클릭하세요.

지도 변경 : 확대하려면 엑스 표시가 있는 녹색 버튼, 축소하려면 빼기 표시가 있는 녹색 버튼, 다음 페이지의 지도를 보려면 녹색 화살표를 클릭하세요.


METAR-TAF: